»·PEaware :: N415CS U42-KRIF

N415CS :: U42-KRIF

FLIGHT INFORMATION

Flight Status: Arrived
Operator: Privately registered:
United States
More flights under this callsign
Pilot: Henderson P. (1210)
Aircraft: CESSNA 182 SKYLANE
(C182)
More flights by this aircraft type
Origin: U42 Salt Lake City Mun No 2
United States
Destination: KRIF Richfield Mun
United States
More flights between these airports :: More routes between these airports
Route: +SVALY1 FFU V235 DTA
File this flight plan on PilotEdge
Remarks:
Altitude:
(Current/Filed)
12,000ft
Speed:
(Current/Filed)
120kts
Departed: 13-Aug-18 07:37 AM
Arrived: 13-Aug-18 08:52 AM
Distance/Time
Traveled:
114nm/1:15
Distance/Time
To Go:
Arrived

Flight Plot

Page will automatically refresh every two minutes.

Flight plan parsing failed; only flown route is shown


Map Options




Map Legend


Flown Route
Filed Route
Departure Airport
Arrival Airport
Navaid (VOR, NDB)
Fix

Horizontal Profiles

Position Reports

Time Latitude Longitude Heading Altitude Ground
Speed
13-Aug-18 07:17 40.619731 -111.996192 352 4606ft 0kts
13-Aug-18 07:18 40.619731 -111.996192 352 4606ft 0kts
13-Aug-18 07:19 40.619731 -111.996192 352 4606ft 0kts
13-Aug-18 07:20 40.619731 -111.996192 352 4606ft 0kts
13-Aug-18 07:21 40.619731 -111.996192 352 4606ft 0kts
13-Aug-18 07:22 40.619731 -111.996192 352 4606ft 0kts
13-Aug-18 07:23 40.619731 -111.996192 352 4606ft 0kts
13-Aug-18 07:24 40.619731 -111.996192 352 4606ft 0kts
13-Aug-18 07:25 40.619732 -111.996193 352 4606ft 0kts
13-Aug-18 07:26 40.619735 -111.996193 352 4606ft 0kts
13-Aug-18 07:27 40.619738 -111.996194 352 4606ft 0kts
13-Aug-18 07:28 40.619741 -111.996194 352 4606ft 0kts
13-Aug-18 07:29 40.619743 -111.996195 352 4606ft 0kts
13-Aug-18 07:30 40.619746 -111.996195 352 4606ft 0kts
13-Aug-18 07:31 40.619749 -111.996196 352 4606ft 0kts
13-Aug-18 07:32 40.621081 -111.995909 350 4606ft 12kts
13-Aug-18 07:33 40.624775 -111.996470 353 4606ft 13kts
13-Aug-18 07:34 40.627118 -111.995180 156 4606ft 2kts
13-Aug-18 07:35 40.627101 -111.995171 157 4606ft 0kts
13-Aug-18 07:36 40.627034 -111.995067 102 4606ft 3kts
13-Aug-18 07:37 40.627175 -111.994759 46 4606ft 7kts
13-Aug-18 07:38 40.616592 -111.992297 172 4646ft 85kts
13-Aug-18 07:39 40.592149 -111.988163 172 5169ft 91kts
13-Aug-18 07:40 40.567262 -111.984093 173 5646ft 88kts
13-Aug-18 07:41 40.543237 -111.980473 173 6124ft 84kts
13-Aug-18 07:42 40.519983 -111.976941 173 6577ft 86kts
13-Aug-18 07:43 40.495823 -111.973353 174 7005ft 87kts
13-Aug-18 07:44 40.471068 -111.969669 174 7479ft 86kts
13-Aug-18 07:45 40.448519 -111.966206 172 7871ft 79kts
13-Aug-18 07:46 40.426648 -111.962990 174 8170ft 78kts
13-Aug-18 07:47 40.405013 -111.959811 174 8468ft 77kts
13-Aug-18 07:48 40.383926 -111.957454 166 8667ft 74kts
13-Aug-18 07:49 40.362514 -111.954228 174 8858ft 77kts
13-Aug-18 07:50 40.340759 -111.950453 176 9080ft 80kts
13-Aug-18 07:51 40.318210 -111.946980 175 9347ft 79kts
13-Aug-18 07:52 40.295472 -111.943605 175 9560ft 84kts
13-Aug-18 07:53 40.271619 -111.940151 182 9779ft 89kts
13-Aug-18 07:54 40.250057 -111.956202 203 10017ft 91kts
13-Aug-18 07:55 40.227656 -111.968514 205 10364ft 80kts
13-Aug-18 07:56 40.207381 -111.980850 208 10531ft 81kts
13-Aug-18 07:57 40.187214 -111.992697 215 10581ft 78kts
13-Aug-18 07:58 40.168514 -112.005808 205 10471ft 82kts
13-Aug-18 07:59 40.147405 -112.016315 203 10685ft 80kts
13-Aug-18 08:00 40.126702 -112.027834 206 10850ft 81kts
13-Aug-18 08:01 40.105962 -112.039972 207 11002ft 84kts
13-Aug-18 08:02 40.084850 -112.052370 207 11200ft 82kts
13-Aug-18 08:03 40.063854 -112.064669 207 11354ft 83kts
13-Aug-18 08:04 40.042433 -112.077249 207 11518ft 85kts
13-Aug-18 08:05 40.020641 -112.089984 207 11694ft 85kts
13-Aug-18 08:06 39.998289 -112.103117 208 11845ft 89kts
13-Aug-18 08:07 39.975348 -112.116486 206 11998ft 95kts
13-Aug-18 08:08 39.944080 -112.134769 206 11996ft 151kts
13-Aug-18 08:09 39.903063 -112.158736 206 11991ft 161kts
13-Aug-18 08:11 39.816843 -112.208925 206 11999ft 163kts
13-Aug-18 08:12 39.775332 -112.233040 206 11998ft 159kts
13-Aug-18 08:13 39.734576 -112.256693 206 12004ft 157kts
13-Aug-18 08:14 39.693144 -112.280706 206 12005ft 161kts
13-Aug-18 08:15 39.658030 -112.301038 206 11995ft 168kts
13-Aug-18 08:16 39.618627 -112.323784 206 12002ft 145kts
13-Aug-18 08:17 39.582373 -112.344729 206 12009ft 141kts
13-Aug-18 08:18 39.547232 -112.364969 206 12085ft 130kts
13-Aug-18 08:19 39.518560 -112.381370 208 12589ft 95kts
13-Aug-18 08:20 39.492765 -112.396421 209 12993ft 120kts
13-Aug-18 08:21 39.459697 -112.415580 208 13011ft 130kts
13-Aug-18 08:22 39.424070 -112.436140 207 13013ft 151kts
13-Aug-18 08:23 39.385055 -112.458560 207 13010ft 158kts
13-Aug-18 08:24 39.344326 -112.481928 207 12996ft 165kts
13-Aug-18 08:25 39.309193 -112.458412 98 13005ft 174kts
13-Aug-18 08:26 39.316132 -112.401062 80 12990ft 156kts
13-Aug-18 08:27 39.323684 -112.344391 81 12992ft 168kts
13-Aug-18 08:28 39.331359 -112.286756 79 12993ft 161kts
13-Aug-18 08:29 39.339050 -112.229901 79 12995ft 163kts
13-Aug-18 08:30 39.346166 -112.176056 79 13003ft 145kts
13-Aug-18 08:31 39.352780 -112.125907 79 13000ft 138kts
13-Aug-18 08:32 39.359401 -112.075594 79 13003ft 147kts
13-Aug-18 08:33 39.364386 -112.019757 108 12979ft 169kts
13-Aug-18 08:34 39.330879 -111.987415 150 12988ft 145kts
13-Aug-18 08:35 39.295436 -111.960531 151 13003ft 152kts
13-Aug-18 08:36 39.257116 -111.931694 151 12979ft 168kts
13-Aug-18 08:37 39.216798 -111.901435 150 12985ft 170kts
13-Aug-18 08:38 39.179205 -111.873236 151 12989ft 147kts
13-Aug-18 08:39 39.141574 -111.845069 150 12981ft 167kts
13-Aug-18 08:40 39.104445 -111.817288 150 12985ft 145kts
13-Aug-18 08:41 39.070469 -111.791898 150 12990ft 138kts
13-Aug-18 08:42 39.035237 -111.784316 224 12874ft 147kts
13-Aug-18 08:43 39.001625 -111.820866 222 11998ft 166kts
13-Aug-18 08:44 38.969748 -111.855283 222 11106ft 143kts
13-Aug-18 08:45 38.937932 -111.889507 221 10434ft 154kts
13-Aug-18 08:46 38.904757 -111.925154 221 9643ft 149kts
13-Aug-18 08:47 38.874862 -111.957261 221 8786ft 133kts
13-Aug-18 08:48 38.846956 -111.987241 221 8010ft 130kts
13-Aug-18 08:49 38.818409 -112.017968 220 7246ft 138kts
13-Aug-18 08:50 38.793113 -112.045170 222 6597ft 100kts
13-Aug-18 08:51 38.773923 -112.072348 227 6100ft 104kts
13-Aug-18 08:52 38.751170 -112.090165 205 5461ft 83kts
13-Aug-18 08:53 38.742875 -112.095154 27 5304ft 13kts
13-Aug-18 08:54 38.743713 -112.097031 264 5304ft 7kts
13-Aug-18 08:55 38.743562 -112.097800 120 5304ft 0kts
13-Aug-18 08:56 38.743562 -112.097800 120 5304ft 0kts
13-Aug-18 08:57 38.743562 -112.097800 120 5304ft 0kts
13-Aug-18 08:58 38.743562 -112.097800 120 5304ft 0kts
13-Aug-18 08:59 38.743562 -112.097800 120 5304ft 0kts
13-Aug-18 09:00 38.743562 -112.097800 120 5304ft 0kts
13-Aug-18 09:01 38.743562 -112.097800 120 5304ft 0kts
13-Aug-18 09:02 38.743562 -112.097800 120 5304ft 0kts
13-Aug-18 09:03 38.743561 -112.097798 120 5304ft 0kts
13-Aug-18 09:04 38.743558 -112.097791 120 5304ft 0kts
13-Aug-18 09:05 38.743734 -112.096683 90 5304ft 7kts
13-Aug-18 09:06 38.740940 -112.096261 204 5304ft 54kts
13-Aug-18 09:07 38.720490 -112.109281 205 5674ft 87kts

Navigation Log

Ident Type
Flight plan parsing failed, navigation log unavailable